Wan Hai 510 — 9VJJ8 — position and weather

sailwx.info

Track history (hours):
 
Tides and Currents Weather Stations Pressure Air Temp Water Temp Dewpoint Dewpoint Depression Visibility Wind Speed Wind Dir Waves Ship Positions

Wan Hai 510

Last reported at 2015-Jul-12 19:33 UTC. Time now 2015-Jul-29 13:33 UTC.
Position N 01°16' E 103°50'.
Warning: this ship's position is 16 days out of date.

Length 269 m; draft 11.1 m.

Type: Cargo ship. MMSI: 565741000.

Date/timePositionNaut miles runAvg speedWind from/ knotsBaromVisibWave heightAir tempDewpointWater temp
2015-Jul-12 19:33N 01°16' E 103°50'0 0.0
2015-Jul-12 18:30N 01°16' E 103°50'0 0.0
2015-Jul-12 17:33N 01°16' E 103°50'0 0.0
2015-Jul-12 16:24N 01°16' E 103°50'0 0.0
2015-Jul-12 15:30N 01°16' E 103°50'0 0.0
2015-Jul-12 14:30N 01°16' E 103°50'0 0.0
2015-Jul-12 13:30N 01°16' E 103°50'0 0.0
2015-Jul-12 12:30N 01°16' E 103°50'0 0.0
2015-Jul-12 11:33N 01°16' E 103°50'2 1.7
2015-Jul-12 10:34N 01°15' E 103°52'4 4.2
2015-Jul-12 09:33N 01°14' E 103°56'  
2015-Jul-08 23:33N 22°19' E 114°05'1211.9
2015-Jul-08 22:34N 22°23' E 113°54'4 1.8
2015-Jul-08 20:32N 22°27' E 113°53'0 0.0
2015-Jul-08 19:32N 22°27' E 113°53'0 0.1
2015-Jul-08 18:32N 22°27' E 113°53'0 0.1
2015-Jul-08 17:32N 22°27' E 113°53'0 0.0
2015-Jul-08 16:32N 22°27' E 113°53'0 0.0
2015-Jul-08 15:32N 22°27' E 113°53'0 0.0
2015-Jul-08 14:26N 22°27' E 113°53'0 0.0
2015-Jul-08 13:32N 22°27' E 113°53'0 0.0
2015-Jul-08 12:32N 22°27' E 113°53'0 0.0
2015-Jul-08 11:32N 22°27' E 113°53'0 0.0
2015-Jul-08 10:32N 22°27' E 113°53'0 0.0
2015-Jul-08 09:33N 22°27' E 113°53'14 7.2
2015-Jul-08 07:33N 22°19' E 114°07'1 1.2
2015-Jul-08 06:33N 22°20' E 114°07'0 0.0
2015-Jul-08 04:15N 22°20' E 114°07'0 0.0
2015-Jul-08 03:33N 22°20' E 114°07'0 0.0
2015-Jul-08 01:21N 22°20' E 114°07'0 0.0
2015-Jul-07 23:15N 22°20' E 114°07'0 0.0
2015-Jul-07 22:21N 22°20' E 114°07'0 0.0
2015-Jul-07 21:30N 22°20' E 114°07'0 0.0
2015-Jul-07 20:21N 22°20' E 114°07'0 0.0
2015-Jul-07 19:33N 22°20' E 114°07'0 0.0
2015-Jul-07 18:27N 22°20' E 114°07'0 0.0
2015-Jul-07 17:33N 22°20' E 114°07'1 0.7
2015-Jul-07 16:33N 22°20' E 114°07'8 7.2
2015-Jul-07 15:29N 22°13' E 114°10'8 7.5
2015-Jul-07 14:24N 22°09' E 114°18'8 9.2
2015-Jul-07 13:33N 22°10' E 114°26'2 1.0
2015-Jul-07 11:33N 22°11' E 114°28'30914.7
2015-Jul-06 14:30N 22°33' E 120°01'1415.0
2015-Jul-06 13:33N 22°33' E 120°17'3 2.6
2015-Jul-06 12:25N 22°33' E 120°20'0 0.0
2015-Jul-06 11:31N 22°33' E 120°20'0 0.0
2015-Jul-06 10:19N 22°33' E 120°20'0 0.0
2015-Jul-06 09:31N 22°33' E 120°20'0 0.0
2015-Jul-06 08:31N 22°33' E 120°20'0 0.0
2015-Jul-06 07:31N 22°33' E 120°20'0 0.0
2015-Jul-06 06:31N 22°33' E 120°20'0 0.0
2015-Jul-06 05:31N 22°33' E 120°20'0 0.0
2015-Jul-06 04:31N 22°33' E 120°20'0 0.0
2015-Jul-06 02:25N 22°33' E 120°20'0 0.0
2015-Jul-06 01:31N 22°33' E 120°20'0 0.0
2015-Jul-06 00:31N 22°33' E 120°20'0 0.0
2015-Jul-05 23:25N 22°33' E 120°20'0 0.0
2015-Jul-05 22:31N 22°33' E 120°20'0 0.0
2015-Jul-05 21:19N 22°33' E 120°20'0 0.0
2015-Jul-05 20:31N 22°33' E 120°20'0 0.0
2015-Jul-05 19:31N 22°33' E 120°20'0 0.0
2015-Jul-05 17:19N 22°33' E 120°20'0 0.0
2015-Jul-05 11:06N 22°33' E 120°20'4 6.9
2015-Jul-05 10:33N 22°32' E 120°16'1313.2
2015-Jul-05 09:33N 22°21' E 120°07'  
Track history (hours):
 
Tides and Currents Weather Stations Pressure Air Temp Water Temp Dewpoint Dewpoint Depression Visibility Wind Speed Wind Dir Waves Ship Positions

Wan Hai 510

Last reported at 2015-Jul-12 19:33 UTC. Time now 2015-Jul-29 13:33 UTC.
Position N 01°16' E 103°50'.
Warning: this ship's position is 16 days out of date.

Length 269 m; draft 11.1 m.

Type: Cargo ship. MMSI: 565741000.

Date/timePositionNaut miles runAvg speedWind from/ knotsBaromVisibWave heightAir tempDewpointWater temp
2015-Jul-12 19:33N 01°16' E 103°50'0 0.0
2015-Jul-12 18:30N 01°16' E 103°50'0 0.0
2015-Jul-12 17:33N 01°16' E 103°50'0 0.0
2015-Jul-12 16:24N 01°16' E 103°50'0 0.0
2015-Jul-12 15:30N 01°16' E 103°50'0 0.0
2015-Jul-12 14:30N 01°16' E 103°50'0 0.0
2015-Jul-12 13:30N 01°16' E 103°50'0 0.0
2015-Jul-12 12:30N 01°16' E 103°50'0 0.0
2015-Jul-12 11:33N 01°16' E 103°50'2 1.7
2015-Jul-12 10:34N 01°15' E 103°52'4 4.2
2015-Jul-12 09:33N 01°14' E 103°56'  
2015-Jul-08 23:33N 22°19' E 114°05'1211.9
2015-Jul-08 22:34N 22°23' E 113°54'4 1.8
2015-Jul-08 20:32N 22°27' E 113°53'0 0.0
2015-Jul-08 19:32N 22°27' E 113°53'0 0.1
2015-Jul-08 18:32N 22°27' E 113°53'0 0.1
2015-Jul-08 17:32N 22°27' E 113°53'0 0.0
2015-Jul-08 16:32N 22°27' E 113°53'0 0.0
2015-Jul-08 15:32N 22°27' E 113°53'0 0.0
2015-Jul-08 14:26N 22°27' E 113°53'0 0.0
2015-Jul-08 13:32N 22°27' E 113°53'0 0.0
2015-Jul-08 12:32N 22°27' E 113°53'0 0.0
2015-Jul-08 11:32N 22°27' E 113°53'0 0.0
2015-Jul-08 10:32N 22°27' E 113°53'0 0.0
2015-Jul-08 09:33N 22°27' E 113°53'14 7.2
2015-Jul-08 07:33N 22°19' E 114°07'1 1.2
2015-Jul-08 06:33N 22°20' E 114°07'0 0.0
2015-Jul-08 04:15N 22°20' E 114°07'0 0.0
2015-Jul-08 03:33N 22°20' E 114°07'0 0.0
2015-Jul-08 01:21N 22°20' E 114°07'0 0.0
2015-Jul-07 23:15N 22°20' E 114°07'0 0.0
2015-Jul-07 22:21N 22°20' E 114°07'0 0.0
2015-Jul-07 21:30N 22°20' E 114°07'0 0.0
2015-Jul-07 20:21N 22°20' E 114°07'0 0.0
2015-Jul-07 19:33N 22°20' E 114°07'0 0.0
2015-Jul-07 18:27N 22°20' E 114°07'0 0.0
2015-Jul-07 17:33N 22°20' E 114°07'1 0.7
2015-Jul-07 16:33N 22°20' E 114°07'8 7.2
2015-Jul-07 15:29N 22°13' E 114°10'8 7.5
2015-Jul-07 14:24N 22°09' E 114°18'8 9.2
2015-Jul-07 13:33N 22°10' E 114°26'2 1.0
2015-Jul-07 11:33N 22°11' E 114°28'30914.7
2015-Jul-06 14:30N 22°33' E 120°01'1415.0
2015-Jul-06 13:33N 22°33' E 120°17'3 2.6
2015-Jul-06 12:25N 22°33' E 120°20'0 0.0
2015-Jul-06 11:31N 22°33' E 120°20'0 0.0
2015-Jul-06 10:19N 22°33' E 120°20'0 0.0
2015-Jul-06 09:31N 22°33' E 120°20'0 0.0
2015-Jul-06 08:31N 22°33' E 120°20'0 0.0
2015-Jul-06 07:31N 22°33' E 120°20'0 0.0
2015-Jul-06 06:31N 22°33' E 120°20'0 0.0
2015-Jul-06 05:31N 22°33' E 120°20'0 0.0
2015-Jul-06 04:31N 22°33' E 120°20'0 0.0
2015-Jul-06 02:25N 22°33' E 120°20'0 0.0
2015-Jul-06 01:31N 22°33' E 120°20'0 0.0
2015-Jul-06 00:31N 22°33' E 120°20'0 0.0
2015-Jul-05 23:25N 22°33' E 120°20'0 0.0
2015-Jul-05 22:31N 22°33' E 120°20'0 0.0
2015-Jul-05 21:19N 22°33' E 120°20'0 0.0
2015-Jul-05 20:31N 22°33' E 120°20'0 0.0
2015-Jul-05 19:31N 22°33' E 120°20'0 0.0
2015-Jul-05 17:19N 22°33' E 120°20'0 0.0
2015-Jul-05 11:06N 22°33' E 120°20'4 6.9
2015-Jul-05 10:33N 22°32' E 120°16'1313.2
2015-Jul-05 09:33N 22°21' E 120°07'  

Dump ship's entire track history